Time;durP1;ratioP1;P1;durP2;ratioP2;P2;SDS_P1;SDS_P2;PMS_P1;PMS_P2;Temp;Humidity;BMP_temperature;BMP_pressure;BME280_temperature;BME280_humidity;BME280_pressure;Samples;Min_cycle;Max_cycle;Signal;HPM_P1;HPM_P2
2023/01/05 00:01:14;;;;;;;25.83;6.30;;;9.90;99.90;;;;;;4972665;28;20553;-74
2023/01/05 00:03:40;;;;;;;29.38;6.65;;;9.90;99.90;;;;;;4970470;28;20048;-73
2023/01/05 00:06:10;;;;;;;34.78;6.47;;;9.90;99.90;;;;;;4973209;28;20046;-72
2023/01/05 00:08:36;;;;;;;28.60;5.85;;;9.90;99.90;;;;;;4988040;28;20061;-72
2023/01/05 00:22:30;;;;;;;31.60;6.43;;;9.90;99.90;;;;;;4972162;28;20382;-73
2023/01/05 00:25:09;;;;;;;28.75;5.68;;;9.90;99.90;;;;;;4987095;28;20065;-73
2023/01/05 00:27:35;;;;;;;25.58;6.63;;;9.90;99.90;;;;;;4988917;28;20073;-74
2023/01/05 00:30:02;;;;;;;25.42;5.53;;;9.90;99.90;;;;;;4991182;28;20065;-73
2023/01/05 00:32:28;;;;;;;25.95;5.80;;;9.90;99.90;;;;;;4988382;28;20042;-73
2023/01/05 00:34:55;;;;;;;26.73;6.10;;;9.90;99.90;;;;;;4958014;28;20390;-74
2023/01/05 00:37:23;;;;;;;23.92;5.05;;;9.90;99.90;;;;;;4973449;28;20050;-74
2023/01/05 00:39:49;;;;;;;25.38;6.32;;;9.90;99.90;;;;;;4973539;28;20412;-75
2023/01/05 00:42:15;;;;;;;27.45;6.35;;;9.90;99.90;;;;;;4972630;28;20497;-73
2023/01/05 00:44:41;;;;;;;21.52;4.97;;;9.90;99.90;;;;;;4971883;28;20096;-76
2023/01/05 00:47:06;;;;;;;21.15;5.05;;;10.00;99.90;;;;;;4970771;28;20049;-76
2023/01/05 00:49:32;;;;;;;24.27;5.82;;;10.00;99.90;;;;;;4988701;28;20181;-73
2023/01/05 00:51:59;;;;;;;24.38;5.72;;;10.00;99.90;;;;;;4973376;28;20037;-74
2023/01/05 00:54:25;;;;;;;29.83;7.20;;;10.00;99.90;;;;;;4972444;28;20049;-77
2023/01/05 00:56:51;;;;;;;22.92;5.20;;;10.10;99.90;;;;;;4972173;28;20038;-77
2023/01/05 00:59:17;;;;;;;21.65;4.63;;;10.10;99.90;;;;;;4986362;28;20125;-77
2023/01/05 01:01:49;;;;;;;21.02;4.82;;;10.10;99.90;;;;;;4988895;28;20064;-77
2023/01/05 01:04:15;;;;;;;24.80;5.68;;;10.10;99.90;;;;;;4986063;28;20092;-72
2023/01/05 01:06:41;;;;;;;25.25;5.70;;;10.10;99.90;;;;;;4968824;28;20050;-74
2023/01/05 01:09:07;;;;;;;23.98;5.45;;;10.10;99.90;;;;;;4972547;28;20037;-73
2023/01/05 01:11:33;;;;;;;23.02;5.18;;;10.10;99.90;;;;;;4971585;28;20064;-73
2023/01/05 01:13:59;;;;;;;18.27;5.05;;;10.10;99.90;;;;;;4968012;28;20121;-74
2023/01/05 01:16:25;;;;;;;26.60;5.50;;;10.10;99.90;;;;;;4988168;28;20145;-73
2023/01/05 01:18:51;;;;;;;23.73;5.13;;;10.10;99.90;;;;;;4971871;28;20034;-73
2023/01/05 01:21:17;;;;;;;24.67;5.47;;;10.10;99.90;;;;;;4972016;28;20036;-73
2023/01/05 01:23:43;;;;;;;22.60;5.22;;;10.10;99.90;;;;;;4951762;28;20128;-73
2023/01/05 01:26:11;;;;;;;23.90;5.15;;;10.10;99.90;;;;;;4971313;28;20512;-72
2023/01/05 01:28:38;;;;;;;26.27;5.32;;;10.20;99.90;;;;;;4986967;28;20054;-73
2023/01/05 01:31:04;;;;;;;23.77;5.35;;;10.10;99.90;;;;;;4988006;28;20038;-74
2023/01/05 01:33:30;;;;;;;25.02;5.55;;;10.10;99.90;;;;;;4975691;28;20045;-74
2023/01/05 01:35:56;;;;;;;21.92;4.75;;;10.20;99.90;;;;;;4973227;28;20535;-76
2023/01/05 01:38:24;;;;;;;21.70;5.15;;;10.20;99.90;;;;;;4968473;28;20038;-75
2023/01/05 01:40:51;;;;;;;19.92;4.72;;;10.20;99.90;;;;;;4982605;28;20049;-76
2023/01/05 01:43:39;;;;;;;25.42;5.32;;;10.20;99.90;;;;;;4972078;28;20130;-75
2023/01/05 01:46:08;;;;;;;24.20;5.43;;;10.20;99.90;;;;;;4988776;28;20073;-75
2023/01/05 01:48:36;;;;;;;22.77;5.05;;;10.30;99.90;;;;;;4984439;28;20144;-75
2023/01/05 01:51:09;;;;;;;19.73;5.32;;;10.20;99.90;;;;;;4967892;28;20123;-76
2023/01/05 01:53:40;;;;;;;22.52;5.50;;;10.20;99.90;;;;;;4989578;28;20073;-73
2023/01/05 01:56:13;;;;;;;21.08;5.15;;;10.30;99.90;;;;;;4985895;28;20510;-75
2023/01/05 01:58:39;;;;;;;26.08;6.28;;;10.30;99.90;;;;;;4970377;28;20092;-74
2023/01/05 02:01:05;;;;;;;22.25;4.45;;;10.20;99.90;;;;;;4971790;28;20104;-72
2023/01/05 02:03:31;;;;;;;22.58;5.53;;;10.30;99.90;;;;;;4971936;28;20065;-74
2023/01/05 02:05:58;;;;;;;22.88;5.18;;;10.30;99.90;;;;;;4989780;28;20508;-73
2023/01/05 02:08:30;;;;;;;25.25;5.80;;;10.30;99.90;;;;;;4986229;28;20037;-74
2023/01/05 02:11:04;;;;;;;22.20;4.72;;;10.30;99.90;;;;;;4972704;28;20085;-73
2023/01/05 02:13:51;;;;;;;20.15;5.05;;;10.30;99.90;;;;;;4987474;28;20100;-74
2023/01/05 02:16:26;;;;;;;24.42;5.13;;;10.30;99.90;;;;;;4987264;28;20049;-73
2023/01/05 02:19:13;;;;;;;22.08;6.28;;;10.30;99.90;;;;;;4987515;28;20054;-76
2023/01/05 02:22:10;;;;;;;22.42;5.05;;;10.30;99.90;;;;;;4989718;28;20050;-74
2023/01/05 02:25:16;;;;;;;21.48;4.90;;;10.30;99.90;;;;;;4972150;28;20569;-74
2023/01/05 02:27:54;;;;;;;18.67;4.47;;;10.30;99.90;;;;;;4974147;28;20758;-74
2023/01/05 02:30:33;;;;;;;19.38;5.45;;;10.30;99.90;;;;;;4985552;28;20046;-73
2023/01/05 02:33:36;;;;;;;21.13;5.25;;;10.30;99.90;;;;;;4988356;28;20057;-74
2023/01/05 02:36:10;;;;;;;19.23;4.50;;;10.30;99.90;;;;;;4986533;28;20038;-74
2023/01/05 02:38:39;;;;;;;24.60;5.95;;;10.30;99.90;;;;;;4986910;28;20056;-74
2023/01/05 02:41:33;;;;;;;21.63;5.25;;;10.30;99.90;;;;;;4984394;28;20050;-75
2023/01/05 02:44:00;;;;;;;26.15;5.47;;;10.30;99.90;;;;;;4979448;28;20149;-75
2023/01/05 02:46:26;;;;;;;22.60;5.47;;;10.30;99.90;;;;;;4984238;28;22230;-74
2023/01/05 02:48:55;;;;;;;20.23;4.60;;;10.20;99.90;;;;;;4969925;28;20136;-74
2023/01/05 02:51:45;;;;;;;22.02;5.20;;;10.20;99.90;;;;;;4971735;28;20034;-73
2023/01/05 02:54:20;;;;;;;;;;;10.20;99.90;;;;;;4986876;28;20518;-75
2023/01/05 02:56:54;;;;;;;21.67;5.13;;;10.10;99.90;;;;;;4986664;28;20019;-74
2023/01/05 02:59:23;;;;;;;20.90;4.90;;;10.10;99.90;;;;;;4986057;28;20493;-73
2023/01/05 03:02:20;;;;;;;20.75;5.20;;;10.10;99.90;;;;;;4984934;28;20053;-73
2023/01/05 03:04:50;;;;;;;22.17;4.70;;;10.10;99.90;;;;;;4985669;28;20436;-73
2023/01/05 03:07:22;;;;;;;22.58;5.05;;;10.10;99.90;;;;;;4971349;28;20556;-74
2023/01/05 03:09:49;;;;;;;23.48;5.07;;;10.10;99.90;;;;;;4981915;28;20139;-74
2023/01/05 03:15:33;;;;;;;26.42;6.45;;;10.10;99.90;;;;;;4986818;28;20046;-74
2023/01/05 03:18:16;;;;;;;25.77;5.72;;;10.10;99.90;;;;;;4971729;28;20042;-74
2023/01/05 03:20:47;;;;;;;26.38;5.78;;;10.00;99.90;;;;;;4988225;28;20057;-74
2023/01/05 03:37:46;;;;;;;27.02;5.57;;;10.00;99.90;;;;;;4987408;28;20056;-74
2023/01/05 03:40:20;;;;;;;25.30;4.95;;;10.00;99.90;;;;;;4987907;28;20082;-75
2023/01/05 03:42:47;;;;;;;25.23;6.18;;;10.00;99.90;;;;;;4989212;28;20065;-75
2023/01/05 03:45:15;;;;;;;28.00;6.03;;;10.00;99.90;;;;;;4961270;28;20033;-74
2023/01/05 03:47:40;;;;;;;26.00;5.22;;;10.00;99.90;;;;;;4972701;28;20057;-75
2023/01/05 03:50:07;;;;;;;26.73;6.70;;;10.00;99.90;;;;;;4991234;28;20038;-76
2023/01/05 03:52:33;;;;;;;20.80;4.63;;;10.10;99.90;;;;;;4988298;28;20471;-75
2023/01/05 03:54:58;;;;;;;25.75;5.45;;;10.10;99.90;;;;;;4983295;28;20030;-76
2023/01/05 03:57:24;;;;;;;25.02;5.88;;;10.10;99.90;;;;;;4972737;28;20473;-76
2023/01/05 03:59:50;;;;;;;24.10;5.50;;;10.10;99.90;;;;;;4986699;28;20054;-76
2023/01/05 04:02:15;;;;;;;22.63;5.72;;;10.10;99.90;;;;;;4953269;28;20063;-76
2023/01/05 04:04:41;;;;;;;27.83;5.32;;;10.10;99.90;;;;;;4979669;28;20062;-76
2023/01/05 04:07:07;;;;;;;22.02;5.30;;;10.10;99.90;;;;;;4968565;28;20137;-77
2023/01/05 04:09:33;;;;;;;21.05;5.13;;;10.10;99.90;;;;;;4966553;28;20043;-76
2023/01/05 04:11:59;;;;;;;26.52;6.00;;;10.10;99.90;;;;;;4968980;28;20144;-76
2023/01/05 04:14:25;;;;;;;26.88;5.97;;;10.10;99.90;;;;;;4967146;28;20057;-77
2023/01/05 04:16:51;;;;;;;22.00;5.85;;;10.10;99.90;;;;;;4984950;28;20412;-76
2023/01/05 04:19:17;;;;;;;25.83;5.88;;;10.10;99.90;;;;;;4984235;28;20046;-77
2023/01/05 04:21:42;;;;;;;24.52;6.43;;;10.10;99.90;;;;;;4961668;28;20053;-77
2023/01/05 04:24:09;;;;;;;21.83;5.05;;;10.20;99.90;;;;;;4984113;28;20046;-77
2023/01/05 04:26:36;;;;;;;20.98;4.93;;;10.20;99.90;;;;;;4968367;28;20058;-77
2023/01/05 04:29:03;;;;;;;22.55;5.38;;;10.10;99.90;;;;;;4986507;28;20034;-76
2023/01/05 04:31:29;;;;;;;22.30;5.53;;;10.10;99.90;;;;;;4993603;28;20050;-76
2023/01/05 04:33:55;;;;;;;20.45;5.28;;;10.10;99.90;;;;;;4988799;28;20096;-75
2023/01/05 04:36:20;;;;;;;23.25;6.05;;;10.10;99.90;;;;;;4955633;28;20160;-76
2023/01/05 04:38:46;;;;;;;18.45;4.63;;;10.20;99.90;;;;;;4971097;28;20058;-76
2023/01/05 04:41:12;;;;;;;25.63;5.50;;;10.20;99.90;;;;;;4972649;28;20042;-75
2023/01/05 04:43:38;;;;;;;20.42;5.22;;;10.20;99.90;;;;;;4954637;28;20054;-75
2023/01/05 04:46:04;;;;;;;21.83;5.18;;;10.20;99.90;;;;;;4973303;28;20088;-75
2023/01/05 04:48:30;;;;;;;31.30;5.47;;;10.20;99.90;;;;;;4986781;28;20089;-75
2023/01/05 04:50:56;;;;;;;21.65;5.20;;;10.20;99.90;;;;;;4986668;28;20539;-76
2023/01/05 04:53:23;;;;;;;23.52;5.60;;;10.20;99.90;;;;;;4987108;28;20109;-75
2023/01/05 04:55:49;;;;;;;21.67;5.22;;;10.20;99.90;;;;;;4971979;28;20046;-76
2023/01/05 04:58:16;;;;;;;25.05;5.70;;;10.20;99.90;;;;;;4986952;28;20050;-75
2023/01/05 05:00:42;;;;;;;22.27;4.95;;;10.20;99.90;;;;;;4969890;28;20054;-76
2023/01/05 05:03:08;;;;;;;17.98;4.95;;;10.20;99.90;;;;;;4970670;28;20050;-75
2023/01/05 05:05:37;;;;;;;18.88;4.95;;;10.20;99.90;;;;;;4955048;28;20043;-76
2023/01/05 05:08:03;;;;;;;18.13;4.32;;;10.20;99.90;;;;;;4987400;28;20695;-75
2023/01/05 05:10:28;;;;;;;24.20;5.25;;;10.20;99.90;;;;;;4956118;28;20400;-75
2023/01/05 05:12:54;;;;;;;24.48;4.93;;;10.20;99.90;;;;;;4970783;28;20192;-75
2023/01/05 05:15:20;;;;;;;27.58;5.78;;;10.20;99.90;;;;;;4971677;28;20038;-76
2023/01/05 05:17:47;;;;;;;19.70;5.43;;;10.20;99.90;;;;;;4985966;28;20149;-76
2023/01/05 05:20:13;;;;;;;21.63;5.05;;;10.20;99.90;;;;;;4952194;28;20047;-76
2023/01/05 05:22:39;;;;;;;25.95;6.22;;;10.20;99.90;;;;;;4971443;28;20060;-75
2023/01/05 05:25:05;;;;;;;20.42;4.68;;;10.20;99.90;;;;;;4969949;28;20172;-75
2023/01/05 05:27:31;;;;;;;24.73;4.95;;;10.20;99.90;;;;;;4982967;28;20572;-75
2023/01/05 05:29:57;;;;;;;21.42;4.93;;;10.20;99.90;;;;;;4964088;28;20133;-75
2023/01/05 05:32:23;;;;;;;22.58;5.13;;;10.20;99.90;;;;;;4985671;28;20050;-75
2023/01/05 05:34:48;;;;;;;22.35;5.38;;;10.20;99.90;;;;;;4987904;28;20136;-76
2023/01/05 05:37:14;;;;;;;20.17;5.00;;;10.20;99.90;;;;;;4971815;28;20432;-76
2023/01/05 05:39:40;;;;;;;17.95;4.50;;;10.20;99.90;;;;;;4992957;28;20050;-75
2023/01/05 05:42:05;;;;;;;27.27;5.22;;;10.20;99.90;;;;;;4969207;28;20053;-75
2023/01/05 05:44:31;;;;;;;21.75;5.20;;;10.20;99.90;;;;;;4970598;28;20038;-76
2023/01/05 05:46:57;;;;;;;20.88;5.22;;;10.20;99.90;;;;;;4955139;28;20046;-75
2023/01/05 05:49:23;;;;;;;21.58;4.82;;;10.20;99.90;;;;;;4986892;28;20046;-75
2023/01/05 05:51:49;;;;;;;20.00;5.18;;;10.30;99.90;;;;;;4950093;28;20120;-75
2023/01/05 05:54:15;;;;;;;18.92;5.00;;;10.30;99.90;;;;;;4987464;28;20498;-75
2023/01/05 05:56:40;;;;;;;20.77;5.00;;;10.20;99.90;;;;;;4968103;28;20411;-75
2023/01/05 05:59:06;;;;;;;19.50;5.00;;;10.30;99.90;;;;;;4954298;28;20087;-75
2023/01/05 06:01:32;;;;;;;21.23;5.38;;;10.20;99.90;;;;;;4969237;28;20105;-75
2023/01/05 06:03:58;;;;;;;26.17;5.43;;;10.20;99.90;;;;;;4970807;28;20509;-76
2023/01/05 06:06:24;;;;;;;20.17;5.45;;;10.30;99.90;;;;;;4972841;28;20043;-76
2023/01/05 06:08:49;;;;;;;22.27;4.82;;;10.30;99.90;;;;;;4950008;28;20046;-76
2023/01/05 06:11:15;;;;;;;19.63;4.90;;;10.20;99.90;;;;;;4954830;28;20141;-75
2023/01/05 06:13:41;;;;;;;24.70;6.00;;;10.20;99.90;;;;;;4985651;28;20568;-76
2023/01/05 06:16:07;;;;;;;28.33;6.15;;;10.20;99.90;;;;;;4986077;28;20104;-76
2023/01/05 06:18:32;;;;;;;24.08;5.28;;;10.20;99.90;;;;;;4986276;28;20034;-76
2023/01/05 06:20:58;;;;;;;22.75;5.78;;;10.10;99.90;;;;;;4969995;28;20034;-76
2023/01/05 06:23:24;;;;;;;24.38;5.25;;;10.10;99.90;;;;;;4970192;28;20034;-76
2023/01/05 06:25:52;;;;;;;24.58;5.25;;;10.00;99.90;;;;;;4985324;28;20042;-76
2023/01/05 06:28:18;;;;;;;27.27;5.90;;;10.00;99.90;;;;;;4968919;28;20445;-76
2023/01/05 06:30:48;;;;;;;28.20;6.63;;;10.00;99.90;;;;;;4976343;28;20546;-76
2023/01/05 06:33:19;;;;;;;23.70;5.27;;;10.00;99.90;;;;;;4970262;28;20113;-75
2023/01/05 06:35:45;;;;;;;26.20;5.97;;;9.90;99.90;;;;;;4949548;28;20054;-75
2023/01/05 06:38:11;;;;;;;25.05;5.10;;;9.90;99.90;;;;;;4952593;28;20049;-75
2023/01/05 06:40:39;;;;;;;24.30;4.95;;;9.90;99.90;;;;;;4938687;28;20082;-75
2023/01/05 06:43:05;;;;;;;24.08;5.85;;;9.90;99.90;;;;;;4987498;28;20069;-76
2023/01/05 06:45:30;;;;;;;20.92;4.97;;;9.90;99.90;;;;;;4973589;28;20481;-76
2023/01/05 06:47:57;;;;;;;24.77;5.03;;;9.90;99.90;;;;;;4970724;28;20497;-76
2023/01/05 06:50:23;;;;;;;22.92;5.47;;;9.90;99.90;;;;;;4969439;28;20055;-76
2023/01/05 06:52:49;;;;;;;28.30;5.30;;;9.90;99.90;;;;;;4952870;28;20449;-76
2023/01/05 06:55:14;;;;;;;30.95;6.72;;;9.80;99.90;;;;;;4968691;28;20046;-76
2023/01/05 06:57:40;;;;;;;27.70;6.22;;;9.80;99.90;;;;;;4964051;28;20093;-76
2023/01/05 07:00:09;;;;;;;20.92;5.60;;;9.80;99.90;;;;;;4946828;28;20464;-76
2023/01/05 07:02:35;;;;;;;19.33;4.47;;;9.80;99.90;;;;;;4973599;28;20096;-75
2023/01/05 07:05:01;;;;;;;29.50;6.13;;;9.80;99.90;;;;;;4945806;28;20057;-75
2023/01/05 07:07:27;;;;;;;25.10;5.00;;;9.80;99.90;;;;;;4983840;28;20034;-76
2023/01/05 07:09:53;;;;;;;27.17;5.70;;;9.80;99.90;;;;;;4964671;28;20050;-76
2023/01/05 07:12:19;;;;;;;20.38;4.78;;;9.80;99.90;;;;;;4969799;28;20059;-76
2023/01/05 07:14:45;;;;;;;26.90;5.88;;;9.80;99.90;;;;;;4950949;28;20062;-76
2023/01/05 07:17:13;;;;;;;24.60;5.20;;;9.90;99.90;;;;;;4982659;28;20047;-76
2023/01/05 07:19:39;;;;;;;28.42;5.55;;;9.80;99.90;;;;;;4966571;28;20054;-75
2023/01/05 07:22:05;;;;;;;26.63;5.82;;;9.80;99.90;;;;;;4967472;28;20374;-75
2023/01/05 07:24:31;;;;;;;24.17;5.72;;;9.80;99.90;;;;;;4984560;28;20501;-75
2023/01/05 07:27:00;;;;;;;23.10;5.10;;;9.80;99.90;;;;;;4966639;28;20050;-76
2023/01/05 07:29:26;;;;;;;29.52;6.10;;;9.80;99.90;;;;;;4966612;28;20071;-75
2023/01/05 07:31:52;;;;;;;23.52;5.32;;;9.80;99.90;;;;;;4984144;28;20042;-75
2023/01/05 07:34:19;;;;;;;27.73;5.80;;;9.80;99.90;;;;;;4965215;28;20519;-75
2023/01/05 07:36:44;;;;;;;25.75;5.72;;;9.90;99.90;;;;;;4991141;28;20051;-76
2023/01/05 07:39:10;;;;;;;20.80;5.45;;;9.90;99.90;;;;;;4979694;28;20047;-75
2023/01/05 07:41:36;;;;;;;24.50;5.22;;;9.90;99.90;;;;;;4979270;28;20658;-75
2023/01/05 07:44:02;;;;;;;25.58;5.63;;;9.90;99.90;;;;;;4947383;28;20038;-75
2023/01/05 07:46:28;;;;;;;22.05;4.93;;;9.90;99.90;;;;;;4963725;28;20112;-75
2023/01/05 07:48:53;;;;;;;21.45;5.75;;;9.90;99.90;;;;;;4964789;28;20381;-75
2023/01/05 07:51:21;;;;;;;25.88;5.47;;;9.90;99.90;;;;;;4979983;28;20034;-75
2023/01/05 07:53:46;;;;;;;19.77;4.72;;;10.00;99.90;;;;;;4968376;28;20050;-76
2023/01/05 07:56:13;;;;;;;24.20;5.53;;;9.90;99.90;;;;;;4966120;28;20046;-75
2023/01/05 07:58:39;;;;;;;21.70;5.00;;;9.90;99.90;;;;;;4982026;28;20058;-76
2023/01/05 08:01:08;;;;;;;23.73;4.45;;;9.90;99.90;;;;;;4964887;28;20977;-75
2023/01/05 08:03:34;;;;;;;21.27;5.38;;;9.90;99.90;;;;;;4985934;28;20061;-75
2023/01/05 08:06:16;;;;;;;20.08;4.88;;;9.80;99.90;;;;;;4983816;28;20608;-75
2023/01/05 08:08:42;;;;;;;19.92;4.78;;;9.90;99.90;;;;;;4988717;28;20053;-76
2023/01/05 08:11:10;;;;;;;23.23;5.05;;;9.90;99.90;;;;;;4970540;28;20053;-75
2023/01/05 08:16:21;;;;;;;24.95;5.55;;;10.00;99.90;;;;;;4974523;28;20578;-75
2023/01/05 08:18:47;;;;;;;20.52;4.55;;;10.00;99.90;;;;;;4991067;28;20184;-75
2023/01/05 08:21:13;;;;;;;22.02;5.10;;;10.00;99.90;;;;;;4975447;28;20128;-75
2023/01/05 08:23:39;;;;;;;20.55;4.82;;;9.90;99.90;;;;;;4992766;28;20405;-75
2023/01/05 08:26:13;;;;;;;18.30;3.70;;;10.00;99.90;;;;;;4971273;28;20038;-74
2023/01/05 08:28:39;;;;;;;20.90;4.60;;;10.00;99.90;;;;;;4974128;28;20103;-75
2023/01/05 08:31:09;;;;;;;19.50;4.68;;;10.00;99.90;;;;;;4956245;28;20077;-75
2023/01/05 08:33:35;;;;;;;20.25;4.28;;;9.90;99.90;;;;;;4984313;28;20057;-75
2023/01/05 08:36:05;;;;;;;16.85;4.28;;;10.00;99.90;;;;;;4971794;28;20566;-75
2023/01/05 08:38:31;;;;;;;23.45;5.00;;;10.00;99.90;;;;;;4972995;28;20273;-75
2023/01/05 08:41:00;;;;;;;21.83;5.03;;;10.00;99.90;;;;;;4973542;28;20148;-76
2023/01/05 08:43:26;;;;;;;19.17;4.70;;;10.00;99.90;;;;;;4990478;28;20183;-75
2023/01/05 08:45:52;;;;;;;21.80;4.28;;;10.00;99.90;;;;;;4967514;28;20137;-76
2023/01/05 08:48:17;;;;;;;17.83;4.60;;;10.00;99.90;;;;;;4974123;28;20508;-75
2023/01/05 08:50:43;;;;;;;21.83;5.28;;;10.00;99.90;;;;;;4953624;28;20042;-76
2023/01/05 08:53:10;;;;;;;20.77;4.57;;;10.00;99.90;;;;;;4990529;28;20053;-76
2023/01/05 08:55:35;;;;;;;25.52;5.78;;;9.90;99.90;;;;;;4991254;28;20045;-75
2023/01/05 08:58:01;;;;;;;19.75;5.05;;;10.00;99.90;;;;;;4971494;28;20496;-76
2023/01/05 09:00:27;;;;;;;17.63;5.00;;;10.00;99.90;;;;;;4974136;28;20046;-76
2023/01/05 09:02:53;;;;;;;21.83;4.20;;;10.00;99.90;;;;;;4971021;28;20054;-76
2023/01/05 09:05:19;;;;;;;20.45;4.90;;;10.00;99.90;;;;;;4941002;28;20038;-76
2023/01/05 09:07:44;;;;;;;19.90;4.47;;;10.00;99.90;;;;;;4969337;28;20049;-75
2023/01/05 09:10:10;;;;;;;21.17;5.07;;;10.00;99.90;;;;;;4971782;28;20057;-76
2023/01/05 09:12:39;;;;;;;23.17;5.15;;;10.00;99.90;;;;;;4966665;28;20175;-78
2023/01/05 09:15:06;;;;;;;20.85;4.68;;;10.00;99.90;;;;;;4971318;28;20392;-76
2023/01/05 09:17:32;;;;;;;20.50;4.75;;;10.00;99.90;;;;;;4972471;28;20492;-75
2023/01/05 09:19:58;;;;;;;22.95;4.80;;;10.00;99.90;;;;;;4986625;28;20397;-75
2023/01/05 09:22:24;;;;;;;24.50;5.70;;;10.00;99.90;;;;;;4988810;28;20045;-75
2023/01/05 09:24:49;;;;;;;19.20;5.25;;;10.10;99.90;;;;;;4972992;28;20136;-75
2023/01/05 09:27:15;;;;;;;24.67;5.45;;;10.00;99.90;;;;;;4953162;28;20062;-76
2023/01/05 09:29:41;;;;;;;19.63;4.45;;;10.10;99.90;;;;;;4971586;28;20046;-75
2023/01/05 09:32:07;;;;;;;22.42;4.85;;;10.10;99.90;;;;;;4971043;28;20038;-75
2023/01/05 09:34:33;;;;;;;22.30;6.05;;;10.10;99.90;;;;;;4988391;28;20034;-75
2023/01/05 09:36:58;;;;;;;22.25;5.63;;;10.10;99.90;;;;;;4936860;28;20069;-73
2023/01/05 09:39:24;;;;;;;20.75;4.97;;;10.10;99.90;;;;;;4968659;28;20246;-81
2023/01/05 09:41:54;;;;;;;22.35;4.80;;;10.20;99.90;;;;;;4969387;28;20053;-81
2023/01/05 09:44:30;;;;;;;19.20;4.90;;;10.20;99.90;;;;;;4969920;28;20046;-80
2023/01/05 09:47:03;;;;;;;22.00;4.65;;;10.20;99.90;;;;;;4971716;28;20078;-80
2023/01/05 09:49:31;;;;;;;21.13;4.85;;;10.10;99.90;;;;;;4988751;28;20058;-80
2023/01/05 09:52:01;;;;;;;16.60;4.70;;;10.20;99.90;;;;;;4970753;28;20049;-80
2023/01/05 09:54:30;;;;;;;26.90;4.95;;;10.20;99.90;;;;;;4987751;28;20331;-80
2023/01/05 09:56:58;;;;;;;15.88;4.38;;;10.20;99.90;;;;;;4988221;28;20494;-80
2023/01/05 09:59:42;;;;;;;18.08;4.28;;;10.20;99.90;;;;;;4969054;28;20073;-79
2023/01/05 10:02:29;;;;;;;22.45;5.50;;;10.20;99.90;;;;;;4987366;28;20050;-81
2023/01/05 10:04:57;;;;;;;17.10;4.88;;;10.20;99.90;;;;;;4972286;28;20129;-80
2023/01/05 10:07:31;;;;;;;20.55;5.10;;;10.20;99.90;;;;;;4970561;28;20040;-80
2023/01/05 10:10:01;;;;;;;19.52;4.45;;;10.20;99.90;;;;;;4971509;28;20416;-80
2023/01/05 10:15:39;;;;;;;18.35;4.57;;;10.20;99.90;;;;;;4987126;28;20054;-80
2023/01/05 10:18:17;;;;;;;21.52;4.82;;;10.20;99.90;;;;;;5001921;28;20129;-80
2023/01/05 10:20:49;;;;;;;17.42;4.35;;;10.20;99.90;;;;;;4986919;28;20088;-79
2023/01/05 10:23:30;;;;;;;20.40;4.38;;;10.20;99.90;;;;;;4988998;28;20057;-79
2023/01/05 10:26:10;;;;;;;19.67;4.90;;;10.30;99.90;;;;;;4990491;28;20053;-81
2023/01/05 10:28:58;;;;;;;18.03;4.43;;;10.20;99.90;;;;;;4985822;28;20045;-80
2023/01/05 10:31:54;;;;;;;17.33;4.05;;;10.30;99.90;;;;;;4987870;28;20046;-80
2023/01/05 10:34:22;;;;;;;19.30;3.78;;;10.20;99.90;;;;;;4971043;28;20066;-80
2023/01/05 10:36:59;;;;;;;17.42;3.97;;;10.20;99.90;;;;;;4987929;28;20069;-82
2023/01/05 10:39:51;;;;;;;18.15;3.95;;;10.30;99.90;;;;;;4971640;28;20057;-83
2023/01/05 10:42:39;;;;;;;18.00;4.05;;;10.30;99.90;;;;;;4965505;28;20050;-80
2023/01/05 10:45:11;;;;;;;15.88;3.53;;;10.20;99.90;;;;;;4969477;28;20546;-80
2023/01/05 10:47:38;;;;;;;15.25;3.33;;;10.30;99.90;;;;;;4997186;28;20077;-80
2023/01/05 10:50:21;;;;;;;16.55;3.78;;;10.30;99.90;;;;;;4986002;28;20054;-80
2023/01/05 10:52:47;;;;;;;12.68;2.95;;;10.30;99.90;;;;;;4966951;28;20096;-80
2023/01/05 10:55:16;;;;;;;20.30;4.05;;;10.30;99.90;;;;;;4955219;28;20049;-81
2023/01/05 10:57:42;;;;;;;18.73;4.28;;;10.40;99.90;;;;;;4985545;28;20118;-81
2023/01/05 11:00:18;;;;;;;15.93;3.60;;;10.40;99.90;;;;;;4969667;28;20058;-80
2023/01/05 11:03:12;;;;;;;18.08;3.88;;;10.40;99.90;;;;;;4981382;28;20050;-81
2023/01/05 11:05:45;;;;;;;16.33;3.83;;;10.40;99.90;;;;;;4979690;28;20050;-81
2023/01/05 11:08:18;;;;;;;18.75;3.80;;;10.40;99.90;;;;;;4985349;28;20056;-80
2023/01/05 11:11:00;;;;;;;15.55;4.22;;;10.40;99.90;;;;;;4983486;28;20092;-80
2023/01/05 11:13:31;;;;;;;16.27;3.47;;;10.50;99.90;;;;;;4967093;28;20365;-79
2023/01/05 11:16:05;;;;;;;16.63;3.33;;;10.50;99.90;;;;;;4962262;28;20042;-79
2023/01/05 11:18:41;;;;;;;15.20;3.50;;;10.50;99.90;;;;;;4987524;28;20041;-80
2023/01/05 11:21:23;;;;;;;15.35;3.63;;;10.50;99.90;;;;;;4986041;28;20060;-79
2023/01/05 11:23:55;;;;;;;14.00;3.05;;;10.50;99.90;;;;;;4968002;28;20418;-80
2023/01/05 11:26:30;;;;;;;14.75;3.35;;;10.50;99.90;;;;;;4987232;28;20053;-79
2023/01/05 11:29:01;;;;;;;18.33;3.78;;;10.50;99.90;;;;;;4975736;28;20160;-80
2023/01/05 11:31:49;;;;;;;12.82;2.88;;;10.50;99.90;;;;;;4987859;28;20095;-79
2023/01/05 11:34:47;;;;;;;16.50;4.18;;;10.50;99.90;;;;;;4971307;28;20049;-79
2023/01/05 11:37:29;;;;;;;17.42;3.55;;;10.40;99.90;;;;;;4975499;28;20116;-79
2023/01/05 11:39:59;;;;;;;17.95;3.97;;;10.40;99.90;;;;;;4987284;28;20057;-80
2023/01/05 11:42:25;;;;;;;15.93;4.35;;;10.50;99.90;;;;;;4984036;28;20162;-79
2023/01/05 11:44:53;;;;;;;18.17;3.92;;;10.50;99.90;;;;;;4967158;28;20049;-79
2023/01/05 11:47:31;;;;;;;23.42;4.78;;;10.50;99.90;;;;;;4987875;28;20100;-80
2023/01/05 11:50:01;;;;;;;15.23;3.58;;;10.50;99.90;;;;;;4994446;28;20131;-79
2023/01/05 11:52:40;;;;;;;17.65;3.65;;;10.50;99.90;;;;;;4986394;28;20420;-79
2023/01/05 11:55:29;;;;;;;24.43;4.83;;;10.60;99.90;;;;;;4993549;28;20266;-79
2023/01/05 11:58:09;;;;;;;17.73;3.88;;;10.60;99.90;;;;;;4975500;28;20833;-79
2023/01/05 12:01:00;;;;;;;17.83;3.72;;;10.60;99.90;;;;;;4976005;28;20045;-80
2023/01/05 12:03:55;;;;;;;17.73;4.20;;;10.60;99.90;;;;;;4959774;28;20050;-79
2023/01/05 12:06:30;;;;;;;15.45;3.63;;;10.60;99.90;;;;;;4989565;28;20034;-80
2023/01/05 12:09:05;;;;;;;15.82;3.55;;;10.60;99.90;;;;;;4989681;28;20060;-79
2023/01/05 12:11:50;;;;;;;15.82;4.30;;;10.60;99.90;;;;;;4974626;28;20057;-79
2023/01/05 12:14:37;;;;;;;20.73;4.45;;;10.50;99.90;;;;;;4972055;28;20060;-80
2023/01/05 12:17:13;;;;;;;20.73;4.60;;;10.50;99.90;;;;;;4989757;28;20056;-80
2023/01/05 12:19:54;;;;;;;21.73;4.93;;;10.40;99.90;;;;;;4970992;28;20389;-80
2023/01/05 12:22:31;;;;;;;19.98;4.20;;;10.40;99.90;;;;;;4988116;28;20044;-79
2023/01/05 12:25:07;;;;;;;18.55;4.38;;;10.40;99.90;;;;;;4990087;28;20053;-80
2023/01/05 12:28:20;;;;;;;18.30;4.88;;;10.40;99.90;;;;;;4986093;28;20084;-73
2023/01/05 12:31:12;;;;;;;17.38;4.32;;;10.30;99.90;;;;;;4968399;28;20508;-74
2023/01/05 12:33:56;;;;;;;19.90;4.43;;;10.30;99.90;;;;;;4981888;28;20058;-74
2023/01/05 12:36:51;;;;;;;18.17;4.30;;;10.30;99.90;;;;;;4981704;28;20100;-73
2023/01/05 12:39:22;;;;;;;19.08;4.95;;;10.40;99.90;;;;;;4933460;28;20817;-79
2023/01/05 12:41:57;;;;;;;16.65;3.90;;;10.40;99.90;;;;;;4972131;28;20531;-80
2023/01/05 12:44:32;;;;;;;20.40;4.60;;;10.40;99.90;;;;;;4986939;28;20045;-79
2023/01/05 12:47:21;;;;;;;18.60;4.18;;;10.40;99.90;;;;;;4969440;28;20058;-79
2023/01/05 12:50:10;;;;;;;19.63;5.32;;;10.40;99.90;;;;;;4985877;28;20146;-80
2023/01/05 12:52:48;;;;;;;21.65;4.18;;;10.40;99.90;;;;;;4944777;28;20065;-80
2023/01/05 12:55:22;;;;;;;21.42;5.10;;;10.40;99.90;;;;;;4974232;28;20076;-80
2023/01/05 12:57:56;;;;;;;17.27;4.60;;;10.40;99.90;;;;;;4973712;28;20046;-79
2023/01/05 13:00:23;;;;;;;22.25;4.70;;;10.40;99.90;;;;;;4972754;28;20057;-79
2023/01/05 13:02:59;;;;;;;20.83;4.90;;;10.40;99.90;;;;;;4965362;28;20418;-79
2023/01/05 13:05:40;;;;;;;24.50;4.80;;;10.40;99.90;;;;;;4987682;28;20046;-80
2023/01/05 13:08:22;;;;;;;23.25;5.47;;;10.40;99.90;;;;;;4971583;28;20050;-80
2023/01/05 13:11:20;;;;;;;22.65;5.07;;;10.40;99.90;;;;;;4996835;28;20057;-79
2023/01/05 13:13:53;;;;;;;17.75;5.15;;;10.50;99.90;;;;;;4932673;28;21394;-80
2023/01/05 13:16:27;;;;;;;22.73;5.60;;;10.50;99.90;;;;;;4983289;28;20139;-79
2023/01/05 13:19:19;;;;;;;24.15;5.35;;;10.50;99.90;;;;;;4987507;28;20454;-79
2023/01/05 13:21:46;;;;;;;25.42;5.50;;;10.50;99.90;;;;;;5003308;28;20053;-73
2023/01/05 13:24:27;;;;;;;26.55;6.00;;;10.50;99.90;;;;;;4972517;28;20052;-73
2023/01/05 13:26:55;;;;;;;20.30;4.60;;;10.50;99.90;;;;;;4986694;28;20065;-72
2023/01/05 13:29:34;;;;;;;21.15;5.05;;;10.60;99.90;;;;;;4988512;28;20053;-73
2023/01/05 13:32:03;;;;;;;16.88;5.22;;;10.60;99.90;;;;;;4973462;28;20104;-73